« Back
NWS Peachtree City, Ga » Text Product » ATL Terminal Aerodrome Forecast


Printer-friendly Version
Current Version              Previous Versions:   1  2  3  4  5  6  7  8  9  

Terminal Aerodrome Forecast

035
FTUS42 KFFC 161500 AAB
TAFATL
TAF AMD
KATL 161559Z 1616/1718 09012G22KT P6SM SKC
     FM170000 10010KT P6SM SKC
     FM171200 08013KT P6SM SCT250=



USA.gov is the U.S. government's official web portal to all federal, state and local government web resources and services.